sensor_id;sensor_type;location;lat;lon;timestamp;P1;durP1;ratioP1;P2;durP2;ratioP2
70199;SDS011;57587;55.688;37.600;2023-04-06T00:01:04;7.97;;;5.30;;
70199;SDS011;57587;55.688;37.600;2023-04-06T00:03:31;10.43;;;5.68;;
70199;SDS011;57587;55.688;37.600;2023-04-06T00:05:58;9.23;;;5.40;;
70199;SDS011;57587;55.688;37.600;2023-04-06T00:08:25;8.25;;;5.30;;
70199;SDS011;57587;55.688;37.600;2023-04-06T00:10:53;9.65;;;6.03;;
70199;SDS011;57587;55.688;37.600;2023-04-06T00:13:20;9.70;;;5.57;;
70199;SDS011;57587;55.688;37.600;2023-04-06T00:15:47;8.98;;;5.35;;
70199;SDS011;57587;55.688;37.600;2023-04-06T00:18:14;8.73;;;5.27;;
70199;SDS011;57587;55.688;37.600;2023-04-06T00:20:41;8.75;;;5.72;;
70199;SDS011;57587;55.688;37.600;2023-04-06T00:23:08;8.45;;;5.35;;
70199;SDS011;57587;55.688;37.600;2023-04-06T00:25:36;8.18;;;5.75;;
70199;SDS011;57587;55.688;37.600;2023-04-06T00:28:03;9.60;;;6.00;;
70199;SDS011;57587;55.688;37.600;2023-04-06T00:30:30;12.43;;;5.80;;
70199;SDS011;57587;55.688;37.600;2023-04-06T00:32:57;8.30;;;5.53;;
70199;SDS011;57587;55.688;37.600;2023-04-06T00:35:24;10.05;;;5.82;;
70199;SDS011;57587;55.688;37.600;2023-04-06T00:37:51;11.27;;;5.80;;
70199;SDS011;57587;55.688;37.600;2023-04-06T00:40:19;10.23;;;5.82;;
70199;SDS011;57587;55.688;37.600;2023-04-06T00:42:46;10.27;;;5.43;;
70199;SDS011;57587;55.688;37.600;2023-04-06T00:45:13;8.40;;;4.93;;
70199;SDS011;57587;55.688;37.600;2023-04-06T00:47:40;10.30;;;5.22;;
70199;SDS011;57587;55.688;37.600;2023-04-06T00:50:07;7.97;;;5.40;;
70199;SDS011;57587;55.688;37.600;2023-04-06T00:52:35;9.18;;;6.00;;
70199;SDS011;57587;55.688;37.600;2023-04-06T00:55:04;13.50;;;6.00;;
70199;SDS011;57587;55.688;37.600;2023-04-06T00:57:37;9.05;;;5.40;;
70199;SDS011;57587;55.688;37.600;2023-04-06T01:00:05;9.73;;;4.95;;
70199;SDS011;57587;55.688;37.600;2023-04-06T01:02:33;8.48;;;4.90;;
70199;SDS011;57587;55.688;37.600;2023-04-06T01:05:01;10.02;;;5.50;;
70199;SDS011;57587;55.688;37.600;2023-04-06T01:07:45;9.53;;;5.17;;
70199;SDS011;57587;55.688;37.600;2023-04-06T01:10:27;10.57;;;6.28;;
70199;SDS011;57587;55.688;37.600;2023-04-06T01:13:02;9.57;;;6.05;;
70199;SDS011;57587;55.688;37.600;2023-04-06T01:15:47;9.48;;;5.70;;
70199;SDS011;57587;55.688;37.600;2023-04-06T01:18:27;10.43;;;6.00;;
70199;SDS011;57587;55.688;37.600;2023-04-06T01:21:17;8.83;;;5.60;;
70199;SDS011;57587;55.688;37.600;2023-04-06T01:24:17;9.05;;;5.88;;
70199;SDS011;57587;55.688;37.600;2023-04-06T01:27:10;9.15;;;5.93;;
70199;SDS011;57587;55.688;37.600;2023-04-06T01:29:52;11.23;;;6.60;;
70199;SDS011;57587;55.688;37.600;2023-04-06T01:32:49;13.02;;;5.70;;
70199;SDS011;57587;55.688;37.600;2023-04-06T01:35:25;11.13;;;6.37;;
70199;SDS011;57587;55.688;37.600;2023-04-06T01:38:01;10.77;;;6.85;;
70199;SDS011;57587;55.688;37.600;2023-04-06T01:40:32;11.30;;;6.35;;
70199;SDS011;57587;55.688;37.600;2023-04-06T01:42:59;8.90;;;6.05;;
70199;SDS011;57587;55.688;37.600;2023-04-06T01:45:33;12.95;;;6.60;;
70199;SDS011;57587;55.688;37.600;2023-04-06T01:48:11;8.50;;;5.63;;
70199;SDS011;57587;55.688;37.600;2023-04-06T01:50:38;8.20;;;5.90;;
70199;SDS011;57587;55.688;37.600;2023-04-06T01:53:07;9.27;;;6.53;;
70199;SDS011;57587;55.688;37.600;2023-04-06T01:55:36;10.57;;;6.30;;
70199;SDS011;57587;55.688;37.600;2023-04-06T01:58:21;10.43;;;6.43;;
70199;SDS011;57587;55.688;37.600;2023-04-06T02:00:48;9.90;;;6.70;;
70199;SDS011;57587;55.688;37.600;2023-04-06T02:03:16;10.65;;;6.47;;
70199;SDS011;57587;55.688;37.600;2023-04-06T02:05:45;9.18;;;6.32;;
70199;SDS011;57587;55.688;37.600;2023-04-06T02:08:19;9.98;;;6.45;;
70199;SDS011;57587;55.688;37.600;2023-04-06T02:10:47;10.77;;;5.93;;
70199;SDS011;57587;55.688;37.600;2023-04-06T02:13:24;8.70;;;5.93;;
70199;SDS011;57587;55.688;37.600;2023-04-06T02:15:53;10.90;;;6.40;;
70199;SDS011;57587;55.688;37.600;2023-04-06T02:18:20;10.88;;;6.10;;
70199;SDS011;57587;55.688;37.600;2023-04-06T02:20:47;11.70;;;6.40;;
70199;SDS011;57587;55.688;37.600;2023-04-06T02:23:15;12.23;;;6.70;;
70199;SDS011;57587;55.688;37.600;2023-04-06T02:25:42;10.93;;;6.20;;
70199;SDS011;57587;55.688;37.600;2023-04-06T02:28:09;10.52;;;6.15;;
70199;SDS011;57587;55.688;37.600;2023-04-06T02:30:36;12.20;;;5.70;;
70199;SDS011;57587;55.688;37.600;2023-04-06T02:33:04;9.05;;;5.85;;
70199;SDS011;57587;55.688;37.600;2023-04-06T02:35:39;8.02;;;5.60;;
70199;SDS011;57587;55.688;37.600;2023-04-06T02:38:07;14.53;;;6.40;;
70199;SDS011;57587;55.688;37.600;2023-04-06T02:40:34;11.63;;;5.75;;
70199;SDS011;57587;55.688;37.600;2023-04-06T02:43:12;10.05;;;6.13;;
70199;SDS011;57587;55.688;37.600;2023-04-06T02:45:39;11.05;;;6.03;;
70199;SDS011;57587;55.688;37.600;2023-04-06T02:48:08;13.45;;;6.85;;
70199;SDS011;57587;55.688;37.600;2023-04-06T02:50:36;11.83;;;6.17;;
70199;SDS011;57587;55.688;37.600;2023-04-06T02:53:05;10.55;;;6.15;;
70199;SDS011;57587;55.688;37.600;2023-04-06T02:55:34;11.68;;;5.90;;
70199;SDS011;57587;55.688;37.600;2023-04-06T02:58:02;10.52;;;5.88;;
70199;SDS011;57587;55.688;37.600;2023-04-06T03:00:36;11.20;;;6.20;;
70199;SDS011;57587;55.688;37.600;2023-04-06T03:03:03;10.57;;;6.00;;
70199;SDS011;57587;55.688;37.600;2023-04-06T03:05:31;10.13;;;5.80;;
70199;SDS011;57587;55.688;37.600;2023-04-06T03:07:58;11.30;;;6.55;;
70199;SDS011;57587;55.688;37.600;2023-04-06T03:10:36;10.45;;;5.90;;
70199;SDS011;57587;55.688;37.600;2023-04-06T03:13:03;10.73;;;6.07;;
70199;SDS011;57587;55.688;37.600;2023-04-06T03:15:43;9.13;;;5.60;;
70199;SDS011;57587;55.688;37.600;2023-04-06T03:18:14;9.00;;;6.03;;
70199;SDS011;57587;55.688;37.600;2023-04-06T03:20:45;14.32;;;5.90;;
70199;SDS011;57587;55.688;37.600;2023-04-06T03:23:15;8.68;;;5.88;;
70199;SDS011;57587;55.688;37.600;2023-04-06T03:25:44;8.70;;;5.35;;
70199;SDS011;57587;55.688;37.600;2023-04-06T03:28:15;10.77;;;5.80;;
70199;SDS011;57587;55.688;37.600;2023-04-06T03:30:49;11.23;;;6.80;;
70199;SDS011;57587;55.688;37.600;2023-04-06T03:33:22;9.32;;;6.45;;
70199;SDS011;57587;55.688;37.600;2023-04-06T03:35:53;10.50;;;5.78;;
70199;SDS011;57587;55.688;37.600;2023-04-06T03:38:24;11.07;;;5.72;;
70199;SDS011;57587;55.688;37.600;2023-04-06T03:40:51;11.40;;;6.00;;
70199;SDS011;57587;55.688;37.600;2023-04-06T03:43:22;12.32;;;6.00;;
70199;SDS011;57587;55.688;37.600;2023-04-06T03:45:50;11.68;;;6.00;;
70199;SDS011;57587;55.688;37.600;2023-04-06T03:48:17;9.73;;;5.50;;
70199;SDS011;57587;55.688;37.600;2023-04-06T03:50:44;11.20;;;6.10;;
70199;SDS011;57587;55.688;37.600;2023-04-06T03:53:11;9.67;;;5.57;;
70199;SDS011;57587;55.688;37.600;2023-04-06T03:55:38;11.65;;;5.80;;
70199;SDS011;57587;55.688;37.600;2023-04-06T03:58:05;9.43;;;5.28;;
70199;SDS011;57587;55.688;37.600;2023-04-06T04:00:32;8.75;;;5.93;;
70199;SDS011;57587;55.688;37.600;2023-04-06T04:02:59;10.07;;;5.78;;
70199;SDS011;57587;55.688;37.600;2023-04-06T04:05:29;10.77;;;5.97;;
70199;SDS011;57587;55.688;37.600;2023-04-06T04:07:56;10.15;;;6.53;;
70199;SDS011;57587;55.688;37.600;2023-04-06T04:10:25;10.50;;;5.80;;
70199;SDS011;57587;55.688;37.600;2023-04-06T04:12:53;8.75;;;5.60;;
70199;SDS011;57587;55.688;37.600;2023-04-06T04:15:20;11.75;;;5.93;;
70199;SDS011;57587;55.688;37.600;2023-04-06T04:17:47;8.50;;;5.67;;
70199;SDS011;57587;55.688;37.600;2023-04-06T04:20:16;12.90;;;6.38;;
70199;SDS011;57587;55.688;37.600;2023-04-06T04:22:43;9.27;;;6.65;;
70199;SDS011;57587;55.688;37.600;2023-04-06T04:25:10;8.57;;;6.47;;
70199;SDS011;57587;55.688;37.600;2023-04-06T04:27:43;10.77;;;6.07;;
70199;SDS011;57587;55.688;37.600;2023-04-06T04:30:10;12.20;;;6.22;;
70199;SDS011;57587;55.688;37.600;2023-04-06T04:32:38;12.90;;;6.70;;
70199;SDS011;57587;55.688;37.600;2023-04-06T04:35:08;13.70;;;5.93;;
70199;SDS011;57587;55.688;37.600;2023-04-06T04:37:40;10.05;;;5.90;;
70199;SDS011;57587;55.688;37.600;2023-04-06T04:40:09;9.68;;;6.63;;
70199;SDS011;57587;55.688;37.600;2023-04-06T04:42:49;7.95;;;6.38;;
70199;SDS011;57587;55.688;37.600;2023-04-06T04:45:27;9.20;;;6.22;;
70199;SDS011;57587;55.688;37.600;2023-04-06T04:47:56;9.27;;;5.93;;
70199;SDS011;57587;55.688;37.600;2023-04-06T04:50:28;10.88;;;6.38;;
70199;SDS011;57587;55.688;37.600;2023-04-06T04:52:57;10.77;;;6.30;;
70199;SDS011;57587;55.688;37.600;2023-04-06T04:55:26;12.00;;;6.80;;
70199;SDS011;57587;55.688;37.600;2023-04-06T04:57:56;13.77;;;7.53;;
70199;SDS011;57587;55.688;37.600;2023-04-06T05:00:37;11.75;;;6.80;;
70199;SDS011;57587;55.688;37.600;2023-04-06T05:03:04;10.05;;;5.90;;
70199;SDS011;57587;55.688;37.600;2023-04-06T05:05:43;10.70;;;6.45;;
70199;SDS011;57587;55.688;37.600;2023-04-06T05:08:16;10.90;;;7.07;;
70199;SDS011;57587;55.688;37.600;2023-04-06T05:10:47;12.00;;;7.22;;
70199;SDS011;57587;55.688;37.600;2023-04-06T05:13:15;12.07;;;7.68;;
70199;SDS011;57587;55.688;37.600;2023-04-06T05:15:45;13.52;;;7.20;;
70199;SDS011;57587;55.688;37.600;2023-04-06T05:18:28;9.32;;;6.80;;
70199;SDS011;57587;55.688;37.600;2023-04-06T05:20:56;12.43;;;8.00;;
70199;SDS011;57587;55.688;37.600;2023-04-06T05:23:32;13.83;;;7.00;;
70199;SDS011;57587;55.688;37.600;2023-04-06T05:26:01;11.55;;;7.90;;
70199;SDS011;57587;55.688;37.600;2023-04-06T05:28:28;13.23;;;7.57;;
70199;SDS011;57587;55.688;37.600;2023-04-06T05:30:56;13.32;;;7.15;;
70199;SDS011;57587;55.688;37.600;2023-04-06T05:33:25;12.07;;;7.68;;
70199;SDS011;57587;55.688;37.600;2023-04-06T05:36:01;10.40;;;7.17;;
70199;SDS011;57587;55.688;37.600;2023-04-06T05:38:30;11.27;;;7.22;;
70199;SDS011;57587;55.688;37.600;2023-04-06T05:41:04;11.23;;;6.93;;
70199;SDS011;57587;55.688;37.600;2023-04-06T05:43:33;10.65;;;7.55;;
70199;SDS011;57587;55.688;37.600;2023-04-06T05:46:01;9.70;;;6.82;;
70199;SDS011;57587;55.688;37.600;2023-04-06T05:48:28;11.13;;;7.13;;
70199;SDS011;57587;55.688;37.600;2023-04-06T05:50:55;13.68;;;7.82;;
70199;SDS011;57587;55.688;37.600;2023-04-06T05:53:30;11.55;;;7.68;;
70199;SDS011;57587;55.688;37.600;2023-04-06T05:56:02;15.88;;;6.80;;
70199;SDS011;57587;55.688;37.600;2023-04-06T05:58:29;11.95;;;7.28;;
70199;SDS011;57587;55.688;37.600;2023-04-06T06:01:00;12.20;;;7.00;;
70199;SDS011;57587;55.688;37.600;2023-04-06T06:03:36;11.07;;;7.53;;
70199;SDS011;57587;55.688;37.600;2023-04-06T06:06:05;12.43;;;6.93;;
70199;SDS011;57587;55.688;37.600;2023-04-06T06:08:47;12.23;;;7.03;;
70199;SDS011;57587;55.688;37.600;2023-04-06T06:11:16;16.85;;;8.00;;
70199;SDS011;57587;55.688;37.600;2023-04-06T06:13:43;11.50;;;7.30;;
70199;SDS011;57587;55.688;37.600;2023-04-06T06:16:11;15.80;;;7.88;;
70199;SDS011;57587;55.688;37.600;2023-04-06T06:18:43;12.52;;;7.90;;
70199;SDS011;57587;55.688;37.600;2023-04-06T06:21:11;11.90;;;7.28;;
70199;SDS011;57587;55.688;37.600;2023-04-06T06:23:39;14.75;;;7.70;;
70199;SDS011;57587;55.688;37.600;2023-04-06T06:26:06;12.73;;;7.07;;
70199;SDS011;57587;55.688;37.600;2023-04-06T06:28:33;17.83;;;7.57;;
70199;SDS011;57587;55.688;37.600;2023-04-06T06:31:01;20.02;;;7.53;;
70199;SDS011;57587;55.688;37.600;2023-04-06T06:33:28;16.23;;;7.63;;
70199;SDS011;57587;55.688;37.600;2023-04-06T06:35:57;15.10;;;7.80;;
70199;SDS011;57587;55.688;37.600;2023-04-06T06:38:24;13.17;;;7.60;;
70199;SDS011;57587;55.688;37.600;2023-04-06T06:40:52;13.68;;;7.45;;
70199;SDS011;57587;55.688;37.600;2023-04-06T06:43:20;11.95;;;7.25;;
70199;SDS011;57587;55.688;37.600;2023-04-06T06:46:00;12.38;;;7.30;;
70199;SDS011;57587;55.688;37.600;2023-04-06T06:48:27;12.75;;;6.93;;
70199;SDS011;57587;55.688;37.600;2023-04-06T06:50:55;12.57;;;7.27;;
70199;SDS011;57587;55.688;37.600;2023-04-06T06:53:22;13.30;;;6.72;;
70199;SDS011;57587;55.688;37.600;2023-04-06T06:55:50;11.73;;;7.00;;
70199;SDS011;57587;55.688;37.600;2023-04-06T06:58:18;9.45;;;6.80;;
70199;SDS011;57587;55.688;37.600;2023-04-06T07:00:48;12.95;;;7.38;;
70199;SDS011;57587;55.688;37.600;2023-04-06T07:03:16;15.93;;;8.37;;
70199;SDS011;57587;55.688;37.600;2023-04-06T07:05:46;10.13;;;6.80;;
70199;SDS011;57587;55.688;37.600;2023-04-06T07:08:20;12.38;;;6.68;;
70199;SDS011;57587;55.688;37.600;2023-04-06T07:10:49;15.57;;;6.80;;
70199;SDS011;57587;55.688;37.600;2023-04-06T07:13:24;15.65;;;6.70;;
70199;SDS011;57587;55.688;37.600;2023-04-06T07:15:55;13.93;;;6.97;;
70199;SDS011;57587;55.688;37.600;2023-04-06T07:18:23;15.02;;;7.03;;
70199;SDS011;57587;55.688;37.600;2023-04-06T07:20:50;21.00;;;7.15;;
70199;SDS011;57587;55.688;37.600;2023-04-06T07:23:18;13.80;;;7.38;;
70199;SDS011;57587;55.688;37.600;2023-04-06T07:25:45;10.55;;;6.57;;
70199;SDS011;57587;55.688;37.600;2023-04-06T07:28:12;11.53;;;6.60;;
70199;SDS011;57587;55.688;37.600;2023-04-06T07:30:40;15.30;;;6.88;;
70199;SDS011;57587;55.688;37.600;2023-04-06T07:33:09;15.32;;;6.88;;
70199;SDS011;57587;55.688;37.600;2023-04-06T07:35:37;16.60;;;6.45;;
70199;SDS011;57587;55.688;37.600;2023-04-06T07:38:05;11.85;;;5.75;;
70199;SDS011;57587;55.688;37.600;2023-04-06T07:40:34;8.53;;;5.50;;
70199;SDS011;57587;55.688;37.600;2023-04-06T07:43:02;14.95;;;6.28;;
70199;SDS011;57587;55.688;37.600;2023-04-06T07:45:30;17.38;;;6.47;;
70199;SDS011;57587;55.688;37.600;2023-04-06T07:47:57;11.20;;;6.18;;
70199;SDS011;57587;55.688;37.600;2023-04-06T07:50:31;14.55;;;6.68;;
70199;SDS011;57587;55.688;37.600;2023-04-06T07:52:58;8.93;;;6.43;;
70199;SDS011;57587;55.688;37.600;2023-04-06T07:55:27;15.80;;;7.00;;
70199;SDS011;57587;55.688;37.600;2023-04-06T07:57:54;9.55;;;6.03;;
70199;SDS011;57587;55.688;37.600;2023-04-06T08:00:21;13.65;;;5.85;;
70199;SDS011;57587;55.688;37.600;2023-04-06T08:02:48;11.23;;;5.80;;
70199;SDS011;57587;55.688;37.600;2023-04-06T08:05:15;8.47;;;5.87;;
70199;SDS011;57587;55.688;37.600;2023-04-06T08:07:44;15.50;;;5.90;;
70199;SDS011;57587;55.688;37.600;2023-04-06T08:10:11;15.60;;;5.95;;
70199;SDS011;57587;55.688;37.600;2023-04-06T08:12:38;10.23;;;5.63;;
70199;SDS011;57587;55.688;37.600;2023-04-06T08:15:05;11.88;;;6.00;;
70199;SDS011;57587;55.688;37.600;2023-04-06T08:17:33;14.57;;;5.73;;
70199;SDS011;57587;55.688;37.600;2023-04-06T08:20:00;13.65;;;5.50;;
70199;SDS011;57587;55.688;37.600;2023-04-06T08:22:30;9.18;;;5.00;;
70199;SDS011;57587;55.688;37.600;2023-04-06T08:24:57;11.52;;;4.85;;
70199;SDS011;57587;55.688;37.600;2023-04-06T08:27:24;11.70;;;5.13;;
70199;SDS011;57587;55.688;37.600;2023-04-06T08:29:52;10.77;;;4.93;;
70199;SDS011;57587;55.688;37.600;2023-04-06T08:32:19;15.00;;;5.78;;
70199;SDS011;57587;55.688;37.600;2023-04-06T08:34:46;14.38;;;5.43;;
70199;SDS011;57587;55.688;37.600;2023-04-06T08:37:13;16.45;;;5.63;;
70199;SDS011;57587;55.688;37.600;2023-04-06T08:39:40;15.20;;;5.78;;
70199;SDS011;57587;55.688;37.600;2023-04-06T08:42:10;13.83;;;5.40;;
70199;SDS011;57587;55.688;37.600;2023-04-06T08:44:42;15.02;;;5.18;;
70199;SDS011;57587;55.688;37.600;2023-04-06T08:47:11;12.32;;;5.57;;
70199;SDS011;57587;55.688;37.600;2023-04-06T08:49:39;12.80;;;5.70;;
70199;SDS011;57587;55.688;37.600;2023-04-06T08:52:08;11.50;;;5.80;;
70199;SDS011;57587;55.688;37.600;2023-04-06T08:54:38;11.67;;;4.77;;
70199;SDS011;57587;55.688;37.600;2023-04-06T08:57:05;12.38;;;5.65;;
70199;SDS011;57587;55.688;37.600;2023-04-06T08:59:34;11.98;;;5.60;;
70199;SDS011;57587;55.688;37.600;2023-04-06T09:02:03;10.18;;;5.03;;
70199;SDS011;57587;55.688;37.600;2023-04-06T09:04:34;12.65;;;5.45;;
70199;SDS011;57587;55.688;37.600;2023-04-06T09:07:03;12.00;;;5.47;;
70199;SDS011;57587;55.688;37.600;2023-04-06T09:09:30;14.18;;;5.80;;
70199;SDS011;57587;55.688;37.600;2023-04-06T09:11:57;9.65;;;5.50;;
70199;SDS011;57587;55.688;37.600;2023-04-06T09:14:38;12.88;;;5.97;;
70199;SDS011;57587;55.688;37.600;2023-04-06T09:17:06;10.13;;;5.85;;
70199;SDS011;57587;55.688;37.600;2023-04-06T09:19:33;11.77;;;6.40;;
70199;SDS011;57587;55.688;37.600;2023-04-06T09:22:01;7.82;;;5.68;;
70199;SDS011;57587;55.688;37.600;2023-04-06T09:24:43;11.15;;;6.38;;
70199;SDS011;57587;55.688;37.600;2023-04-06T09:27:29;9.65;;;6.03;;
70199;SDS011;57587;55.688;37.600;2023-04-06T09:30:07;11.00;;;6.68;;
70199;SDS011;57587;55.688;37.600;2023-04-06T09:32:47;15.43;;;6.50;;
70199;SDS011;57587;55.688;37.600;2023-04-06T09:35:17;10.73;;;6.82;;
70199;SDS011;57587;55.688;37.600;2023-04-06T09:37:47;13.50;;;6.95;;
70199;SDS011;57587;55.688;37.600;2023-04-06T09:40:21;13.40;;;6.95;;
70199;SDS011;57587;55.688;37.600;2023-04-06T09:42:49;16.05;;;7.63;;
70199;SDS011;57587;55.688;37.600;2023-04-06T09:45:19;13.10;;;6.27;;
70199;SDS011;57587;55.688;37.600;2023-04-06T09:47:47;10.63;;;6.40;;
70199;SDS011;57587;55.688;37.600;2023-04-06T09:50:17;11.10;;;6.10;;
70199;SDS011;57587;55.688;37.600;2023-04-06T09:52:50;10.77;;;5.82;;
70199;SDS011;57587;55.688;37.600;2023-04-06T09:55:25;12.02;;;5.20;;
70199;SDS011;57587;55.688;37.600;2023-04-06T09:58:04;15.48;;;5.28;;
70199;SDS011;57587;55.688;37.600;2023-04-06T10:00:35;13.20;;;4.95;;
70199;SDS011;57587;55.688;37.600;2023-04-06T10:05:56;12.10;;;3.95;;
70199;SDS011;57587;55.688;37.600;2023-04-06T10:08:27;18.35;;;4.22;;
70199;SDS011;57587;55.688;37.600;2023-04-06T10:10:58;8.93;;;4.55;;
70199;SDS011;57587;55.688;37.600;2023-04-06T10:13:28;15.20;;;4.22;;
70199;SDS011;57587;55.688;37.600;2023-04-06T10:15:55;14.00;;;4.30;;
70199;SDS011;57587;55.688;37.600;2023-04-06T10:18:23;12.07;;;4.20;;
70199;SDS011;57587;55.688;37.600;2023-04-06T10:20:53;9.07;;;4.15;;
70199;SDS011;57587;55.688;37.600;2023-04-06T10:23:26;9.77;;;4.05;;
70199;SDS011;57587;55.688;37.600;2023-04-06T10:25:59;10.93;;;4.38;;
70199;SDS011;57587;55.688;37.600;2023-04-06T10:28:31;14.70;;;4.80;;
70199;SDS011;57587;55.688;37.600;2023-04-06T10:31:05;15.98;;;4.80;;
70199;SDS011;57587;55.688;37.600;2023-04-06T10:33:33;13.93;;;4.10;;
70199;SDS011;57587;55.688;37.600;2023-04-06T10:36:13;11.30;;;4.60;;
70199;SDS011;57587;55.688;37.600;2023-04-06T10:38:42;11.45;;;4.80;;
70199;SDS011;57587;55.688;37.600;2023-04-06T10:41:10;10.32;;;4.30;;
70199;SDS011;57587;55.688;37.600;2023-04-06T10:43:39;10.60;;;4.20;;
70199;SDS011;57587;55.688;37.600;2023-04-06T10:46:08;9.10;;;4.57;;
70199;SDS011;57587;55.688;37.600;2023-04-06T10:51:06;21.20;;;5.28;;
70199;SDS011;57587;55.688;37.600;2023-04-06T10:53:34;17.40;;;4.85;;
70199;SDS011;57587;55.688;37.600;2023-04-06T10:56:02;12.88;;;4.60;;
70199;SDS011;57587;55.688;37.600;2023-04-06T10:58:29;10.15;;;4.00;;
70199;SDS011;57587;55.688;37.600;2023-04-06T11:00:57;10.93;;;3.97;;
70199;SDS011;57587;55.688;37.600;2023-04-06T11:03:25;13.48;;;4.80;;
70199;SDS011;57587;55.688;37.600;2023-04-06T11:05:53;16.40;;;4.35;;
70199;SDS011;57587;55.688;37.600;2023-04-06T11:11:05;10.85;;;4.00;;
70199;SDS011;57587;55.688;37.600;2023-04-06T11:13:52;11.80;;;3.53;;
70199;SDS011;57587;55.688;37.600;2023-04-06T11:16:41;9.88;;;3.88;;
70199;SDS011;57587;55.688;37.600;2023-04-06T11:19:07;11.43;;;4.05;;
70199;SDS011;57587;55.688;37.600;2023-04-06T11:21:44;8.00;;;3.70;;
70199;SDS011;57587;55.688;37.600;2023-04-06T11:24:16;7.10;;;3.63;;
70199;SDS011;57587;55.688;37.600;2023-04-06T11:26:50;8.50;;;3.55;;
70199;SDS011;57587;55.688;37.600;2023-04-06T11:29:28;8.55;;;4.10;;
70199;SDS011;57587;55.688;37.600;2023-04-06T11:31:58;11.50;;;3.83;;
70199;SDS011;57587;55.688;37.600;2023-04-06T11:34:28;7.07;;;3.88;;
70199;SDS011;57587;55.688;37.600;2023-04-06T11:36:57;15.93;;;4.45;;
70199;SDS011;57587;55.688;37.600;2023-04-06T11:39:26;12.45;;;4.25;;
70199;SDS011;57587;55.688;37.600;2023-04-06T11:41:57;10.82;;;4.15;;
70199;SDS011;57587;55.688;37.600;2023-04-06T11:44:33;12.88;;;3.90;;
70199;SDS011;57587;55.688;37.600;2023-04-06T11:47:02;12.63;;;3.80;;
70199;SDS011;57587;55.688;37.600;2023-04-06T11:49:32;18.88;;;4.18;;
70199;SDS011;57587;55.688;37.600;2023-04-06T11:52:00;9.55;;;4.10;;
70199;SDS011;57587;55.688;37.600;2023-04-06T11:54:34;14.88;;;4.32;;
70199;SDS011;57587;55.688;37.600;2023-04-06T11:57:04;8.60;;;3.80;;
70199;SDS011;57587;55.688;37.600;2023-04-06T11:59:32;10.32;;;3.80;;
70199;SDS011;57587;55.688;37.600;2023-04-06T12:02:04;10.05;;;3.58;;
70199;SDS011;57587;55.688;37.600;2023-04-06T12:04:31;9.35;;;3.53;;
70199;SDS011;57587;55.688;37.600;2023-04-06T12:06:59;11.60;;;3.60;;
70199;SDS011;57587;55.688;37.600;2023-04-06T12:09:26;12.02;;;3.33;;
70199;SDS011;57587;55.688;37.600;2023-04-06T12:11:54;6.18;;;3.20;;
70199;SDS011;57587;55.688;37.600;2023-04-06T12:14:21;12.35;;;3.33;;
70199;SDS011;57587;55.688;37.600;2023-04-06T12:16:49;11.50;;;3.25;;
70199;SDS011;57587;55.688;37.600;2023-04-06T12:19:16;9.05;;;3.40;;
70199;SDS011;57587;55.688;37.600;2023-04-06T12:21:43;6.95;;;3.40;;
70199;SDS011;57587;55.688;37.600;2023-04-06T12:24:10;9.55;;;3.47;;
70199;SDS011;57587;55.688;37.600;2023-04-06T12:26:37;9.07;;;3.13;;
70199;SDS011;57587;55.688;37.600;2023-04-06T12:29:05;13.73;;;3.50;;
70199;SDS011;57587;55.688;37.600;2023-04-06T12:31:35;10.57;;;3.15;;
70199;SDS011;57587;55.688;37.600;2023-04-06T12:34:05;7.45;;;3.72;;
70199;SDS011;57587;55.688;37.600;2023-04-06T12:36:33;11.73;;;3.80;;
70199;SDS011;57587;55.688;37.600;2023-04-06T12:39:00;12.68;;;4.13;;
70199;SDS011;57587;55.688;37.600;2023-04-06T12:41:27;12.88;;;3.60;;
70199;SDS011;57587;55.688;37.600;2023-04-06T12:43:55;6.88;;;3.42;;
70199;SDS011;57587;55.688;37.600;2023-04-06T12:46:22;8.77;;;3.05;;
70199;SDS011;57587;55.688;37.600;2023-04-06T12:48:50;10.85;;;3.50;;
70199;SDS011;57587;55.688;37.600;2023-04-06T12:51:20;9.70;;;3.30;;
70199;SDS011;57587;55.688;37.600;2023-04-06T12:53:48;10.73;;;3.50;;
70199;SDS011;57587;55.688;37.600;2023-04-06T12:56:16;8.05;;;3.22;;
70199;SDS011;57587;55.688;37.600;2023-04-06T12:58:44;6.88;;;3.33;;
70199;SDS011;57587;55.688;37.600;2023-04-06T13:01:12;13.50;;;3.40;;
70199;SDS011;57587;55.688;37.600;2023-04-06T13:03:40;8.20;;;3.53;;
70199;SDS011;57587;55.688;37.600;2023-04-06T13:06:08;7.68;;;3.25;;
70199;SDS011;57587;55.688;37.600;2023-04-06T13:08:36;11.75;;;3.45;;
70199;SDS011;57587;55.688;37.600;2023-04-06T13:11:06;10.23;;;3.38;;
70199;SDS011;57587;55.688;37.600;2023-04-06T13:13:35;13.25;;;3.72;;
70199;SDS011;57587;55.688;37.600;2023-04-06T13:16:04;12.45;;;3.72;;
70199;SDS011;57587;55.688;37.600;2023-04-06T13:18:34;7.82;;;3.05;;
70199;SDS011;57587;55.688;37.600;2023-04-06T13:21:02;8.07;;;3.45;;
70199;SDS011;57587;55.688;37.600;2023-04-06T13:23:30;9.50;;;3.58;;
70199;SDS011;57587;55.688;37.600;2023-04-06T13:26:05;11.15;;;3.75;;
70199;SDS011;57587;55.688;37.600;2023-04-06T13:28:35;8.48;;;3.63;;
70199;SDS011;57587;55.688;37.600;2023-04-06T13:31:04;11.55;;;3.15;;
70199;SDS011;57587;55.688;37.600;2023-04-06T13:33:32;9.68;;;3.05;;
70199;SDS011;57587;55.688;37.600;2023-04-06T13:36:00;11.05;;;3.17;;
70199;SDS011;57587;55.688;37.600;2023-04-06T13:38:27;8.85;;;3.08;;
70199;SDS011;57587;55.688;37.600;2023-04-06T13:40:55;8.73;;;3.58;;
70199;SDS011;57587;55.688;37.600;2023-04-06T13:43:22;7.63;;;2.95;;
70199;SDS011;57587;55.688;37.600;2023-04-06T13:45:53;9.70;;;3.70;;
70199;SDS011;57587;55.688;37.600;2023-04-06T13:48:25;8.57;;;3.17;;
70199;SDS011;57587;55.688;37.600;2023-04-06T13:50:55;11.77;;;3.40;;
70199;SDS011;57587;55.688;37.600;2023-04-06T13:53:22;11.00;;;3.70;;
70199;SDS011;57587;55.688;37.600;2023-04-06T13:55:53;9.13;;;3.22;;
70199;SDS011;57587;55.688;37.600;2023-04-06T13:58:22;11.13;;;3.13;;
70199;SDS011;57587;55.688;37.600;2023-04-06T14:00:49;8.85;;;2.83;;
70199;SDS011;57587;55.688;37.600;2023-04-06T14:03:16;8.25;;;2.78;;
70199;SDS011;57587;55.688;37.600;2023-04-06T14:05:46;5.30;;;3.08;;
70199;SDS011;57587;55.688;37.600;2023-04-06T14:08:13;5.90;;;2.80;;
70199;SDS011;57587;55.688;37.600;2023-04-06T14:10:41;9.30;;;3.22;;
70199;SDS011;57587;55.688;37.600;2023-04-06T14:13:09;9.65;;;3.20;;
70199;SDS011;57587;55.688;37.600;2023-04-06T14:15:37;6.57;;;2.90;;
70199;SDS011;57587;55.688;37.600;2023-04-06T14:18:05;5.32;;;2.80;;
70199;SDS011;57587;55.688;37.600;2023-04-06T14:20:34;9.43;;;3.15;;
70199;SDS011;57587;55.688;37.600;2023-04-06T14:23:02;6.13;;;2.60;;
70199;SDS011;57587;55.688;37.600;2023-04-06T14:25:30;8.75;;;3.05;;
70199;SDS011;57587;55.688;37.600;2023-04-06T14:27:58;7.82;;;2.70;;
70199;SDS011;57587;55.688;37.600;2023-04-06T14:30:25;9.57;;;2.97;;
70199;SDS011;57587;55.688;37.600;2023-04-06T14:32:56;5.65;;;3.05;;
70199;SDS011;57587;55.688;37.600;2023-04-06T14:35:24;9.95;;;2.90;;
70199;SDS011;57587;55.688;37.600;2023-04-06T14:37:55;6.03;;;2.30;;
70199;SDS011;57587;55.688;37.600;2023-04-06T14:40:26;6.85;;;2.20;;
70199;SDS011;57587;55.688;37.600;2023-04-06T14:42:53;5.07;;;2.67;;
70199;SDS011;57587;55.688;37.600;2023-04-06T14:45:22;5.45;;;2.30;;
70199;SDS011;57587;55.688;37.600;2023-04-06T14:47:49;8.80;;;2.65;;
70199;SDS011;57587;55.688;37.600;2023-04-06T14:50:17;7.85;;;3.05;;